createdAt,value
2022-07-30T00:02:19.071Z,9.10
2022-07-30T00:04:48.970Z,12.05
2022-07-30T00:07:17.645Z,9.48
2022-07-30T00:09:45.724Z,6.95
2022-07-30T00:12:13.850Z,8.25
2022-07-30T00:14:42.309Z,6.80
2022-07-30T00:17:10.781Z,7.03
2022-07-30T00:19:38.723Z,7.35
2022-07-30T00:22:08.110Z,7.13
2022-07-30T00:24:36.258Z,7.03
2022-07-30T00:27:04.421Z,8.80
2022-07-30T00:29:32.775Z,7.57
2022-07-30T00:32:01.106Z,6.70
2022-07-30T00:34:29.037Z,7.22
2022-07-30T00:36:57.625Z,7.38
2022-07-30T00:39:29.937Z,8.02
2022-07-30T00:42:00.470Z,8.32
2022-07-30T00:44:29.640Z,9.52
2022-07-30T00:46:58.409Z,10.05
2022-07-30T00:49:27.400Z,11.18
2022-07-30T00:51:56.964Z,11.27
2022-07-30T00:54:25.105Z,11.00
2022-07-30T00:56:54.800Z,11.20
2022-07-30T00:59:22.852Z,10.25
2022-07-30T01:01:50.851Z,10.13
2022-07-30T01:04:19.189Z,9.40
2022-07-30T01:06:47.930Z,9.25
2022-07-30T01:09:15.889Z,8.80
2022-07-30T01:11:45.433Z,8.13
2022-07-30T01:14:15.391Z,7.95
2022-07-30T01:16:45.277Z,6.82
2022-07-30T01:19:38.680Z,7.72
2022-07-30T01:22:15.583Z,7.63
2022-07-30T01:24:48.471Z,8.02
2022-07-30T01:27:19.993Z,8.27
2022-07-30T01:29:50.186Z,7.88
2022-07-30T01:32:20.736Z,7.10
2022-07-30T01:34:50.230Z,7.45
2022-07-30T01:37:20.488Z,8.15
2022-07-30T01:39:50.509Z,7.95
2022-07-30T01:42:21.844Z,7.43
2022-07-30T01:44:51.166Z,8.05
2022-07-30T01:47:21.040Z,8.03
2022-07-30T01:49:51.290Z,7.38
2022-07-30T01:52:21.062Z,8.95
2022-07-30T01:54:52.172Z,8.13
2022-07-30T01:57:23.316Z,9.55
2022-07-30T01:59:56.164Z,9.50
2022-07-30T02:02:24.628Z,9.88
2022-07-30T02:04:52.886Z,9.70
2022-07-30T02:07:25.813Z,8.80
2022-07-30T02:09:59.676Z,9.65
2022-07-30T02:12:33.482Z,9.10
2022-07-30T02:15:15.466Z,9.38
2022-07-30T02:17:46.908Z,9.63
2022-07-30T02:20:18.383Z,9.35
2022-07-30T02:22:48.660Z,10.45
2022-07-30T02:27:53.906Z,10.38
2022-07-30T02:30:26.903Z,10.73
2022-07-30T02:33:00.800Z,11.13
2022-07-30T02:35:31.601Z,10.95
2022-07-30T02:38:03.283Z,12.23
2022-07-30T02:40:32.998Z,11.10
2022-07-30T02:43:03.765Z,10.85
2022-07-30T02:48:02.701Z,10.73
2022-07-30T02:50:32.249Z,10.82
2022-07-30T02:53:03.912Z,10.50
2022-07-30T02:55:35.818Z,10.77
2022-07-30T02:58:08.574Z,12.30
2022-07-30T03:00:38.445Z,11.80
2022-07-30T03:03:08.519Z,13.43
2022-07-30T03:05:39.897Z,12.68
2022-07-30T03:08:09.701Z,13.35
2022-07-30T03:10:39.140Z,12.65
2022-07-30T03:13:10.498Z,11.63
2022-07-30T03:15:43.485Z,17.10
2022-07-30T03:18:14.445Z,10.35
2022-07-30T03:20:45.739Z,10.63
2022-07-30T03:23:19.486Z,9.77
2022-07-30T03:25:52.160Z,9.95
2022-07-30T03:28:26.616Z,9.82
2022-07-30T03:30:55.246Z,10.43
2022-07-30T03:33:24.998Z,12.30
2022-07-30T03:36:08.157Z,12.63
2022-07-30T03:38:38.764Z,14.13
2022-07-30T03:41:08.512Z,13.23
2022-07-30T03:43:40.355Z,12.93
2022-07-30T03:46:11.706Z,13.13
2022-07-30T03:48:44.207Z,13.52
2022-07-30T03:51:12.998Z,12.57
2022-07-30T03:56:50.122Z,14.65
2022-07-30T03:59:46.883Z,14.75
2022-07-30T04:02:15.160Z,13.18
2022-07-30T04:05:13.529Z,14.40
2022-07-30T04:07:45.252Z,14.27
2022-07-30T04:10:15.685Z,13.68
2022-07-30T04:13:09.897Z,12.45
2022-07-30T04:16:37.978Z,13.63
2022-07-30T04:18:43.896Z,13.30
2022-07-30T04:21:17.266Z,12.32
2022-07-30T04:24:02.379Z,13.13
2022-07-30T04:26:35.907Z,12.23
2022-07-30T04:29:07.489Z,12.48
2022-07-30T04:31:40.734Z,13.65
2022-07-30T04:34:29.717Z,15.43
2022-07-30T04:36:58.257Z,15.13
2022-07-30T04:39:27.006Z,14.75
2022-07-30T04:41:55.592Z,15.10
2022-07-30T04:44:35.776Z,14.35
2022-07-30T04:47:24.659Z,14.95
2022-07-30T04:50:24.730Z,14.25
2022-07-30T04:52:54.824Z,14.75
2022-07-30T04:55:28.950Z,15.65
2022-07-30T04:57:58.848Z,15.20
2022-07-30T05:00:30.904Z,16.08
2022-07-30T05:03:04.588Z,16.52
2022-07-30T05:05:34.727Z,16.48
2022-07-30T05:08:04.241Z,17.60
2022-07-30T05:10:33.087Z,16.48
2022-07-30T05:13:01.631Z,16.67
2022-07-30T05:15:37.419Z,15.32
2022-07-30T05:18:09.892Z,15.73
2022-07-30T05:20:41.283Z,18.73
2022-07-30T05:23:16.022Z,17.60
2022-07-30T05:25:51.424Z,17.70
2022-07-30T05:28:30.256Z,16.95
2022-07-30T05:31:02.013Z,16.48
2022-07-30T05:33:42.501Z,16.05
2022-07-30T05:36:13.025Z,17.63
2022-07-30T05:38:41.885Z,17.30
2022-07-30T05:41:32.348Z,15.45
2022-07-30T05:44:23.894Z,15.90
2022-07-30T05:46:53.126Z,15.13
2022-07-30T05:49:22.859Z,16.50
2022-07-30T05:54:19.800Z,16.48
2022-07-30T05:57:17.129Z,16.90
2022-07-30T05:59:47.522Z,16.42
2022-07-30T06:02:29.184Z,17.00
2022-07-30T06:05:19.402Z,17.48
2022-07-30T06:07:48.165Z,17.20
2022-07-30T06:12:56.189Z,17.70
2022-07-30T06:15:25.977Z,18.75
2022-07-30T06:18:01.588Z,18.02
2022-07-30T06:20:52.485Z,17.48
2022-07-30T06:23:27.573Z,16.75
2022-07-30T06:26:09.666Z,16.70
2022-07-30T06:28:39.148Z,17.75
2022-07-30T06:31:34.323Z,15.95
2022-07-30T06:34:02.510Z,14.50
2022-07-30T06:36:37.741Z,14.15
2022-07-30T06:39:10.101Z,14.25
2022-07-30T06:41:58.379Z,14.45
2022-07-30T06:44:43.061Z,15.52
2022-07-30T06:47:29.094Z,15.55
2022-07-30T06:50:02.323Z,16.60
2022-07-30T06:52:33.558Z,16.88
2022-07-30T06:55:01.949Z,17.08
2022-07-30T06:57:46.767Z,16.92
2022-07-30T07:00:34.802Z,15.77
2022-07-30T07:03:11.616Z,15.95
2022-07-30T07:05:40.475Z,14.20
2022-07-30T07:08:09.992Z,14.65
2022-07-30T07:10:44.013Z,14.90
2022-07-30T07:13:32.151Z,13.23
2022-07-30T07:18:32.325Z,14.10
2022-07-30T07:21:06.077Z,14.75
2022-07-30T07:23:41.921Z,15.27
2022-07-30T07:26:25.280Z,15.00
2022-07-30T07:28:53.338Z,15.85
2022-07-30T07:32:04.506Z,14.60
2022-07-30T07:34:10.792Z,14.75
2022-07-30T07:36:41.302Z,15.80
2022-07-30T07:39:13.111Z,17.08
2022-07-30T07:41:48.827Z,16.33
2022-07-30T07:44:20.912Z,17.17
2022-07-30T07:46:49.355Z,15.80
2022-07-30T07:49:17.642Z,16.02
2022-07-30T07:51:51.483Z,16.45
2022-07-30T07:54:23.263Z,16.52
2022-07-30T07:56:55.999Z,14.02
2022-07-30T07:59:40.202Z,12.40
2022-07-30T08:02:16.778Z,14.05
2022-07-30T08:04:45.288Z,13.88
2022-07-30T08:07:13.766Z,10.50
2022-07-30T08:09:52.198Z,9.55
2022-07-30T08:12:27.394Z,9.07
2022-07-30T08:15:13.790Z,6.82
2022-07-30T08:18:00.590Z,7.30
2022-07-30T08:20:40.811Z,7.13
2022-07-30T08:23:09.274Z,7.60
2022-07-30T08:25:38.636Z,7.03
2022-07-30T08:28:06.881Z,6.83
2022-07-30T08:33:04.166Z,6.93
2022-07-30T08:35:32.544Z,7.63
2022-07-30T08:38:00.547Z,6.95
2022-07-30T08:40:33.875Z,7.57
2022-07-30T08:43:08.049Z,6.00
2022-07-30T08:45:38.691Z,8.70
2022-07-30T08:48:23.162Z,8.18
2022-07-30T08:50:51.712Z,8.70
2022-07-30T08:53:35.457Z,9.07
2022-07-30T08:56:05.678Z,10.77
2022-07-30T08:58:36.016Z,9.88
2022-07-30T09:03:33.208Z,10.65
2022-07-30T09:08:32.866Z,9.55
2022-07-30T09:11:01.651Z,9.37
2022-07-30T09:13:31.815Z,9.90
2022-07-30T09:16:03.410Z,10.43
2022-07-30T09:18:35.358Z,10.98
2022-07-30T09:21:16.020Z,8.60
2022-07-30T09:23:58.538Z,9.60
2022-07-30T09:26:55.512Z,9.35
2022-07-30T09:29:41.787Z,10.60
2022-07-30T09:32:49.228Z,7.85
2022-07-30T09:35:35.674Z,9.13
2022-07-30T09:38:13.607Z,8.68
2022-07-30T09:40:57.742Z,8.93
2022-07-30T09:43:48.313Z,8.93
2022-07-30T09:46:42.631Z,9.90
2022-07-30T09:49:18.008Z,10.98
2022-07-30T09:51:54.672Z,8.90
2022-07-30T09:54:27.018Z,7.93
2022-07-30T09:59:59.751Z,9.63
2022-07-30T10:02:33.419Z,10.18
2022-07-30T10:05:24.514Z,9.52
2022-07-30T10:07:54.755Z,9.25
2022-07-30T10:10:26.201Z,10.50
2022-07-30T10:12:59.328Z,11.70
2022-07-30T10:15:32.395Z,14.00
2022-07-30T10:18:01.986Z,12.77
2022-07-30T10:20:50.315Z,12.10
2022-07-30T10:23:32.695Z,13.68
2022-07-30T10:26:29.174Z,13.23
2022-07-30T10:29:18.510Z,13.38
2022-07-30T10:31:54.194Z,14.85
2022-07-30T10:34:23.679Z,14.60
2022-07-30T10:36:59.033Z,13.63
2022-07-30T10:39:34.581Z,13.88
2022-07-30T10:42:13.679Z,13.75
2022-07-30T10:45:17.464Z,13.57
2022-07-30T10:47:48.876Z,12.23
2022-07-30T10:50:22.450Z,12.60
2022-07-30T10:52:53.790Z,12.73
2022-07-30T10:55:37.166Z,12.88
2022-07-30T10:58:10.008Z,12.23
2022-07-30T11:01:02.486Z,12.15
2022-07-30T11:03:41.027Z,11.40
2022-07-30T11:06:29.378Z,10.85
2022-07-30T11:08:58.121Z,10.55
2022-07-30T11:12:05.417Z,11.02
2022-07-30T11:15:07.255Z,10.13
2022-07-30T11:18:12.524Z,9.43
2022-07-30T11:20:43.272Z,11.05
2022-07-30T11:23:40.009Z,9.90
2022-07-30T11:26:13.949Z,10.32
2022-07-30T11:28:45.301Z,9.05
2022-07-30T11:31:56.993Z,10.52
2022-07-30T11:34:30.728Z,8.20
2022-07-30T11:37:19.226Z,8.60
2022-07-30T11:40:13.262Z,9.85
2022-07-30T11:42:43.204Z,9.52
2022-07-30T11:45:27.113Z,8.98
2022-07-30T11:48:00.320Z,10.27
2022-07-30T11:50:32.556Z,10.07
2022-07-30T11:53:02.544Z,8.20
2022-07-30T11:55:32.685Z,8.02
2022-07-30T11:58:02.348Z,8.07
2022-07-30T12:00:36.382Z,8.32
2022-07-30T12:03:12.569Z,8.82
2022-07-30T12:05:43.566Z,8.77
2022-07-30T12:08:35.405Z,8.88
2022-07-30T12:11:02.209Z,9.80
2022-07-30T12:13:43.622Z,9.52
2022-07-30T12:16:16.221Z,9.57
2022-07-30T12:18:45.158Z,9.50
2022-07-30T12:21:16.164Z,9.18
2022-07-30T12:23:54.561Z,8.30
2022-07-30T12:26:24.677Z,9.27
2022-07-30T12:28:55.960Z,8.30
2022-07-30T12:31:24.443Z,9.10
2022-07-30T12:33:52.945Z,8.55
2022-07-30T12:36:31.944Z,11.13
2022-07-30T12:39:01.451Z,7.70
2022-07-30T12:41:44.067Z,8.30
2022-07-30T12:44:12.330Z,8.55
2022-07-30T12:46:41.806Z,7.63
2022-07-30T12:49:21.214Z,8.32
2022-07-30T12:52:04.632Z,11.82
2022-07-30T12:54:32.690Z,8.82
2022-07-30T12:57:03.011Z,8.55
2022-07-30T12:59:32.711Z,8.40
2022-07-30T13:02:01.279Z,9.02
2022-07-30T13:04:29.880Z,9.65
2022-07-30T13:07:07.031Z,9.90
2022-07-30T13:09:35.695Z,9.38
2022-07-30T13:12:04.099Z,10.02
2022-07-30T13:14:32.411Z,10.05
2022-07-30T13:17:01.261Z,8.95
2022-07-30T13:19:29.536Z,8.85
2022-07-30T13:21:57.862Z,9.98
2022-07-30T13:24:29.011Z,9.65
2022-07-30T13:26:57.417Z,10.57
2022-07-30T13:29:25.677Z,9.68
2022-07-30T13:31:53.873Z,9.73
2022-07-30T13:34:22.147Z,10.00
2022-07-30T13:36:50.160Z,8.93
2022-07-30T13:39:18.272Z,8.90
2022-07-30T13:41:47.826Z,9.27
2022-07-30T13:44:15.905Z,12.60
2022-07-30T13:46:43.937Z,10.02
2022-07-30T13:49:12.054Z,10.05
2022-07-30T13:51:40.171Z,10.20
2022-07-30T13:54:08.692Z,10.18
2022-07-30T13:56:41.918Z,9.52
2022-07-30T13:59:11.824Z,9.52
2022-07-30T14:01:40.007Z,10.77
2022-07-30T14:04:08.615Z,9.93
2022-07-30T14:06:36.843Z,10.00
2022-07-30T14:09:05.016Z,12.07
2022-07-30T14:11:33.881Z,9.43
2022-07-30T14:14:01.806Z,7.88
2022-07-30T14:16:46.574Z,8.65
2022-07-30T14:19:23.886Z,9.63
2022-07-30T14:21:53.215Z,7.68
2022-07-30T14:24:22.110Z,7.68
2022-07-30T14:26:53.358Z,8.63
2022-07-30T14:29:26.195Z,8.45
2022-07-30T14:31:55.850Z,9.65
2022-07-30T14:34:24.631Z,9.57
2022-07-30T14:36:52.881Z,9.57
2022-07-30T14:39:21.407Z,9.20
2022-07-30T14:41:53.605Z,10.80
2022-07-30T14:44:24.394Z,9.88
2022-07-30T14:46:53.482Z,10.98
2022-07-30T14:49:24.031Z,11.73
2022-07-30T14:51:52.681Z,10.13
2022-07-30T14:54:21.001Z,9.88
2022-07-30T14:56:49.544Z,10.68
2022-07-30T14:59:18.197Z,9.98
2022-07-30T15:01:48.276Z,10.25
2022-07-30T15:06:45.878Z,9.80
2022-07-30T15:09:14.327Z,9.68
2022-07-30T15:12:07.881Z,8.52
2022-07-30T15:14:30.744Z,8.65
2022-07-30T15:17:03.939Z,8.65
2022-07-30T15:19:33.127Z,8.57
2022-07-30T15:22:04.010Z,15.68
2022-07-30T15:24:32.551Z,9.32
2022-07-30T15:27:01.571Z,8.85
2022-07-30T15:29:30.262Z,9.95
2022-07-30T15:32:00.547Z,9.02
2022-07-30T15:34:33.948Z,8.77
2022-07-30T15:37:05.380Z,8.68
2022-07-30T15:39:34.166Z,8.35
2022-07-30T15:42:02.566Z,9.25
2022-07-30T15:44:31.277Z,9.45
2022-07-30T15:46:59.314Z,9.13
2022-07-30T15:49:27.930Z,9.77
2022-07-30T15:51:56.170Z,8.52
2022-07-30T15:54:27.035Z,11.48
2022-07-30T15:57:01.068Z,8.52
2022-07-30T15:59:30.408Z,8.65
2022-07-30T16:01:59.280Z,8.77
2022-07-30T16:04:31.592Z,8.75
2022-07-30T16:07:00.734Z,8.45
2022-07-30T16:09:30.431Z,10.45
2022-07-30T16:11:59.080Z,12.82
2022-07-30T16:14:27.657Z,12.52
2022-07-30T16:16:55.934Z,9.98
2022-07-30T16:19:24.027Z,8.45
2022-07-30T16:21:52.076Z,9.80
2022-07-30T16:24:20.182Z,10.43
2022-07-30T16:26:50.630Z,7.53
2022-07-30T16:29:18.980Z,8.43
2022-07-30T16:31:47.652Z,7.97
2022-07-30T16:34:15.770Z,7.63
2022-07-30T16:36:44.064Z,7.65
2022-07-30T16:39:12.206Z,8.30
2022-07-30T16:41:41.169Z,8.52
2022-07-30T16:44:10.888Z,8.10
2022-07-30T16:46:39.095Z,7.88
2022-07-30T16:49:07.602Z,8.02
2022-07-30T16:51:35.741Z,8.15
2022-07-30T16:54:03.801Z,8.05
2022-07-30T16:56:31.834Z,7.97
2022-07-30T16:58:59.950Z,8.02
2022-07-30T17:01:31.143Z,7.63
2022-07-30T17:03:59.385Z,8.73
2022-07-30T17:06:27.590Z,8.02
2022-07-30T17:08:55.571Z,7.85
2022-07-30T17:11:47.574Z,8.82
2022-07-30T17:14:12.502Z,9.48
2022-07-30T17:16:42.482Z,8.23
2022-07-30T17:19:10.434Z,8.85
2022-07-30T17:21:39.117Z,8.50
2022-07-30T17:24:11.462Z,8.05
2022-07-30T17:26:43.118Z,9.00
2022-07-30T17:29:14.109Z,7.78
2022-07-30T17:31:44.866Z,7.68
2022-07-30T17:34:14.335Z,7.43
2022-07-30T17:36:51.407Z,7.75
2022-07-30T17:40:04.383Z,8.10
2022-07-30T17:42:10.118Z,7.82
2022-07-30T17:44:39.362Z,7.43
2022-07-30T17:47:14.392Z,7.72
2022-07-30T17:49:43.020Z,7.68
2022-07-30T17:52:11.196Z,10.35
2022-07-30T17:54:39.192Z,9.43
2022-07-30T17:57:07.534Z,9.02
2022-07-30T17:59:35.661Z,9.55
2022-07-30T18:02:04.719Z,9.20
2022-07-30T18:04:34.984Z,9.10
2022-07-30T18:09:40.114Z,8.77
2022-07-30T18:12:09.178Z,9.27
2022-07-30T18:14:37.451Z,8.45
2022-07-30T18:17:06.869Z,8.82
2022-07-30T18:19:38.667Z,6.93
2022-07-30T18:22:08.863Z,7.90
2022-07-30T18:24:40.491Z,6.95
2022-07-30T18:27:12.025Z,6.85
2022-07-30T18:29:40.007Z,6.65
2022-07-30T18:32:08.530Z,10.25
2022-07-30T18:34:38.145Z,6.78
2022-07-30T18:37:06.278Z,7.45
2022-07-30T18:39:34.226Z,6.72
2022-07-30T18:42:03.658Z,6.72
2022-07-30T18:44:32.510Z,7.15
2022-07-30T18:47:00.975Z,6.60
2022-07-30T18:49:37.827Z,7.70
2022-07-30T18:52:08.401Z,6.65
2022-07-30T18:54:37.746Z,6.97
2022-07-30T18:57:08.197Z,7.43
2022-07-30T18:59:39.330Z,7.07
2022-07-30T19:02:08.616Z,6.47
2022-07-30T19:04:36.632Z,7.43
2022-07-30T19:07:04.816Z,6.68
2022-07-30T19:09:34.576Z,7.60
2022-07-30T19:12:02.891Z,6.00
2022-07-30T19:14:31.130Z,7.57
2022-07-30T19:16:59.467Z,6.38
2022-07-30T19:19:28.486Z,6.90
2022-07-30T19:21:57.250Z,6.20
2022-07-30T19:24:27.068Z,6.93
2022-07-30T19:26:57.933Z,8.55
2022-07-30T19:29:26.334Z,7.53
2022-07-30T19:31:54.572Z,7.10
2022-07-30T19:34:22.863Z,7.40
2022-07-30T19:36:50.998Z,7.28
2022-07-30T19:39:21.860Z,7.18
2022-07-30T19:41:51.042Z,6.75
2022-07-30T19:44:20.569Z,6.82
2022-07-30T19:46:51.752Z,6.80
2022-07-30T19:49:21.614Z,8.10
2022-07-30T19:52:17.702Z,8.63
2022-07-30T19:54:38.239Z,6.75
2022-07-30T19:57:06.300Z,6.75
2022-07-30T19:59:45.616Z,6.75
2022-07-30T20:02:24.119Z,6.63
2022-07-30T20:04:54.852Z,7.88
2022-07-30T20:07:27.534Z,6.28
2022-07-30T20:09:55.772Z,7.53
2022-07-30T20:12:24.235Z,6.63
2022-07-30T20:14:53.776Z,6.15
2022-07-30T20:17:23.992Z,7.00
2022-07-30T20:19:58.120Z,5.60
2022-07-30T20:22:27.827Z,6.07
2022-07-30T20:24:55.793Z,5.65
2022-07-30T20:27:36.582Z,6.57
2022-07-30T20:30:09.970Z,5.35
2022-07-30T20:32:42.299Z,5.60
2022-07-30T20:35:14.504Z,5.38
2022-07-30T20:37:54.951Z,5.65
2022-07-30T20:40:24.292Z,5.35
2022-07-30T20:42:55.246Z,5.78
2022-07-30T20:45:25.311Z,5.40
2022-07-30T20:48:08.407Z,5.03
2022-07-30T20:50:46.122Z,4.90
2022-07-30T20:53:17.310Z,5.03
2022-07-30T20:55:45.276Z,6.32
2022-07-30T20:58:16.494Z,10.13
2022-07-30T21:00:49.649Z,5.25
2022-07-30T21:03:21.214Z,5.38
2022-07-30T21:05:51.186Z,5.60
2022-07-30T21:08:25.280Z,7.93
2022-07-30T21:10:55.545Z,5.85
2022-07-30T21:16:16.117Z,5.55
2022-07-30T21:18:49.981Z,4.85
2022-07-30T21:21:28.670Z,4.75
2022-07-30T21:24:11.890Z,5.22
2022-07-30T21:26:40.883Z,5.07
2022-07-30T21:29:09.203Z,4.90
2022-07-30T21:31:58.486Z,5.03
2022-07-30T21:34:30.918Z,5.65
2022-07-30T21:37:03.512Z,4.72
2022-07-30T21:39:31.675Z,5.28
2022-07-30T21:42:08.487Z,4.78
2022-07-30T21:44:37.521Z,4.13
2022-07-30T21:47:10.398Z,4.60
2022-07-30T21:49:39.859Z,4.28
2022-07-30T21:52:09.025Z,5.15
2022-07-30T21:54:48.432Z,7.88
2022-07-30T21:57:23.139Z,7.35
2022-07-30T21:59:55.347Z,7.15
2022-07-30T22:02:25.946Z,7.25
2022-07-30T22:04:56.587Z,8.27
2022-07-30T22:07:27.276Z,8.38
2022-07-30T22:09:55.222Z,8.07
2022-07-30T22:12:28.914Z,7.78
2022-07-30T22:14:57.103Z,8.10
2022-07-30T22:17:36.936Z,7.85
2022-07-30T22:20:15.163Z,9.68
2022-07-30T22:22:43.506Z,9.15
2022-07-30T22:25:12.183Z,9.43
2022-07-30T22:27:56.853Z,8.10
2022-07-30T22:30:27.105Z,7.72
2022-07-30T22:32:56.950Z,7.40
2022-07-30T22:35:33.794Z,8.85
2022-07-30T22:38:03.282Z,8.10
2022-07-30T22:40:31.379Z,8.52
2022-07-30T22:42:59.689Z,8.15
2022-07-30T22:45:47.140Z,7.72
2022-07-30T22:48:19.436Z,8.07
2022-07-30T22:50:51.858Z,8.65
2022-07-30T22:54:03.424Z,8.02
2022-07-30T22:56:14.178Z,8.43
2022-07-30T22:58:44.437Z,8.77
2022-07-30T23:01:12.582Z,8.60
2022-07-30T23:03:43.773Z,8.90
2022-07-30T23:06:14.733Z,7.78
2022-07-30T23:08:44.473Z,8.32
2022-07-30T23:11:12.803Z,7.80
2022-07-30T23:12:26.913Z,5.72
2022-07-30T23:13:42.502Z,8.45
2022-07-30T23:16:10.763Z,8.65
2022-07-30T23:18:39.068Z,7.65
2022-07-30T23:21:08.618Z,8.55
2022-07-30T23:23:36.777Z,7.90
2022-07-30T23:26:06.005Z,8.10
2022-07-30T23:28:34.454Z,8.18
2022-07-30T23:31:03.525Z,7.50
2022-07-30T23:33:32.494Z,7.20
2022-07-30T23:36:01.553Z,7.45
2022-07-30T23:38:30.912Z,7.22
2022-07-30T23:41:01.527Z,6.47
2022-07-30T23:43:31.231Z,7.15
2022-07-30T23:46:00.860Z,6.97
2022-07-30T23:48:29.481Z,8.60
2022-07-30T23:50:57.636Z,7.57
2022-07-30T23:53:26.019Z,7.05
2022-07-30T23:55:55.522Z,6.93
2022-07-30T23:58:23.492Z,8.40
